sensor_id;sensor_type;location;lat;lon;timestamp;P1;durP1;ratioP1;P2;durP2;ratioP2
74541;SDS011;63015;45.378;20.360;2024-01-06T00:01:26;8.93;;;4.65;;
74541;SDS011;63015;45.378;20.360;2024-01-06T00:03:26;9.82;;;3.78;;
74541;SDS011;63015;45.378;20.360;2024-01-06T00:05:27;9.50;;;3.45;;
74541;SDS011;63015;45.378;20.360;2024-01-06T00:07:27;4.75;;;2.17;;
74541;SDS011;63015;45.378;20.360;2024-01-06T00:09:29;5.28;;;2.10;;
74541;SDS011;63015;45.378;20.360;2024-01-06T00:11:29;8.63;;;3.30;;
74541;SDS011;63015;45.378;20.360;2024-01-06T00:13:30;8.85;;;2.72;;
74541;SDS011;63015;45.378;20.360;2024-01-06T00:15:30;7.82;;;3.30;;
74541;SDS011;63015;45.378;20.360;2024-01-06T00:17:31;8.52;;;3.50;;
74541;SDS011;63015;45.378;20.360;2024-01-06T00:19:31;8.32;;;2.67;;
74541;SDS011;63015;45.378;20.360;2024-01-06T00:21:32;11.40;;;3.20;;
74541;SDS011;63015;45.378;20.360;2024-01-06T00:23:32;7.82;;;3.05;;
74541;SDS011;63015;45.378;20.360;2024-01-06T00:25:33;7.57;;;3.00;;
74541;SDS011;63015;45.378;20.360;2024-01-06T00:27:33;7.75;;;2.97;;
74541;SDS011;63015;45.378;20.360;2024-01-06T00:29:34;7.90;;;3.42;;
74541;SDS011;63015;45.378;20.360;2024-01-06T00:31:34;8.50;;;3.70;;
74541;SDS011;63015;45.378;20.360;2024-01-06T00:33:35;10.90;;;3.42;;
74541;SDS011;63015;45.378;20.360;2024-01-06T00:35:36;6.15;;;2.47;;
74541;SDS011;63015;45.378;20.360;2024-01-06T00:37:37;6.57;;;2.47;;
74541;SDS011;63015;45.378;20.360;2024-01-06T00:39:37;7.20;;;2.83;;
74541;SDS011;63015;45.378;20.360;2024-01-06T00:41:38;7.10;;;2.60;;
74541;SDS011;63015;45.378;20.360;2024-01-06T00:43:38;11.13;;;3.63;;
74541;SDS011;63015;45.378;20.360;2024-01-06T00:45:39;5.57;;;2.47;;
74541;SDS011;63015;45.378;20.360;2024-01-06T00:50:11;5.32;;;2.03;;
74541;SDS011;63015;45.378;20.360;2024-01-06T00:52:13;7.78;;;3.17;;
74541;SDS011;63015;45.378;20.360;2024-01-06T00:54:13;10.80;;;2.88;;
74541;SDS011;63015;45.378;20.360;2024-01-06T00:56:14;6.70;;;2.50;;
74541;SDS011;63015;45.378;20.360;2024-01-06T00:58:14;7.10;;;2.83;;
74541;SDS011;63015;45.378;20.360;2024-01-06T01:00:15;7.57;;;3.17;;
74541;SDS011;63015;45.378;20.360;2024-01-06T01:02:15;8.48;;;2.92;;
74541;SDS011;63015;45.378;20.360;2024-01-06T01:04:16;5.72;;;2.42;;
74541;SDS011;63015;45.378;20.360;2024-01-06T01:06:17;9.43;;;3.30;;
74541;SDS011;63015;45.378;20.360;2024-01-06T01:08:17;6.18;;;2.78;;
74541;SDS011;63015;45.378;20.360;2024-01-06T01:10:19;7.32;;;2.55;;
74541;SDS011;63015;45.378;20.360;2024-01-06T01:12:19;4.95;;;2.00;;
74541;SDS011;63015;45.378;20.360;2024-01-06T01:14:21;5.88;;;2.40;;
74541;SDS011;63015;45.378;20.360;2024-01-06T01:16:22;7.78;;;3.08;;
74541;SDS011;63015;45.378;20.360;2024-01-06T01:18:23;5.75;;;2.20;;
74541;SDS011;63015;45.378;20.360;2024-01-06T01:20:23;6.90;;;2.55;;
74541;SDS011;63015;45.378;20.360;2024-01-06T01:22:25;8.23;;;2.70;;
74541;SDS011;63015;45.378;20.360;2024-01-06T01:24:25;6.65;;;2.53;;
74541;SDS011;63015;45.378;20.360;2024-01-06T01:26:26;6.30;;;2.10;;
74541;SDS011;63015;45.378;20.360;2024-01-06T01:28:26;4.80;;;2.03;;
74541;SDS011;63015;45.378;20.360;2024-01-06T01:30:27;5.05;;;2.85;;
74541;SDS011;63015;45.378;20.360;2024-01-06T01:32:27;8.52;;;2.95;;
74541;SDS011;63015;45.378;20.360;2024-01-06T01:34:28;9.07;;;2.70;;
74541;SDS011;63015;45.378;20.360;2024-01-06T01:36:28;8.60;;;2.50;;
74541;SDS011;63015;45.378;20.360;2024-01-06T01:38:29;6.75;;;2.67;;
74541;SDS011;63015;45.378;20.360;2024-01-06T01:40:29;7.38;;;2.80;;
74541;SDS011;63015;45.378;20.360;2024-01-06T01:42:30;6.13;;;2.13;;
74541;SDS011;63015;45.378;20.360;2024-01-06T01:44:30;6.15;;;2.13;;
74541;SDS011;63015;45.378;20.360;2024-01-06T01:46:32;7.00;;;2.30;;
74541;SDS011;63015;45.378;20.360;2024-01-06T01:48:33;4.85;;;2.10;;
74541;SDS011;63015;45.378;20.360;2024-01-06T01:50:34;4.05;;;1.40;;
74541;SDS011;63015;45.378;20.360;2024-01-06T01:52:35;6.40;;;2.50;;
74541;SDS011;63015;45.378;20.360;2024-01-06T01:54:36;7.95;;;2.40;;
74541;SDS011;63015;45.378;20.360;2024-01-06T01:56:37;4.40;;;1.58;;
74541;SDS011;63015;45.378;20.360;2024-01-06T01:58:40;7.13;;;2.17;;
74541;SDS011;63015;45.378;20.360;2024-01-06T02:00:41;6.10;;;2.03;;
74541;SDS011;63015;45.378;20.360;2024-01-06T02:02:42;5.47;;;1.73;;
74541;SDS011;63015;45.378;20.360;2024-01-06T02:04:44;4.82;;;2.33;;
74541;SDS011;63015;45.378;20.360;2024-01-06T02:06:45;5.70;;;2.30;;
74541;SDS011;63015;45.378;20.360;2024-01-06T02:08:46;6.85;;;2.33;;
74541;SDS011;63015;45.378;20.360;2024-01-06T02:10:46;5.85;;;2.22;;
74541;SDS011;63015;45.378;20.360;2024-01-06T02:12:47;4.82;;;1.77;;
74541;SDS011;63015;45.378;20.360;2024-01-06T02:14:48;7.32;;;2.53;;
74541;SDS011;63015;45.378;20.360;2024-01-06T02:16:49;6.28;;;2.13;;
74541;SDS011;63015;45.378;20.360;2024-01-06T02:18:49;5.75;;;1.77;;
74541;SDS011;63015;45.378;20.360;2024-01-06T02:20:50;5.70;;;2.20;;
74541;SDS011;63015;45.378;20.360;2024-01-06T02:22:55;5.50;;;2.05;;
74541;SDS011;63015;45.378;20.360;2024-01-06T02:27:20;3.92;;;1.77;;
74541;SDS011;63015;45.378;20.360;2024-01-06T02:31:52;4.93;;;1.85;;
74541;SDS011;63015;45.378;20.360;2024-01-06T02:33:52;7.60;;;2.20;;
74541;SDS011;63015;45.378;20.360;2024-01-06T02:35:53;4.82;;;1.70;;
74541;SDS011;63015;45.378;20.360;2024-01-06T02:37:53;3.25;;;1.10;;
74541;SDS011;63015;45.378;20.360;2024-01-06T02:39:54;5.60;;;2.08;;
74541;SDS011;63015;45.378;20.360;2024-01-06T02:41:54;4.47;;;1.73;;
74541;SDS011;63015;45.378;20.360;2024-01-06T02:43:55;5.25;;;1.92;;
74541;SDS011;63015;45.378;20.360;2024-01-06T02:45:58;5.03;;;2.35;;
74541;SDS011;63015;45.378;20.360;2024-01-06T02:47:59;4.35;;;1.73;;
74541;SDS011;63015;45.378;20.360;2024-01-06T02:49:59;4.15;;;1.63;;
74541;SDS011;63015;45.378;20.360;2024-01-06T02:52:00;5.40;;;1.92;;
74541;SDS011;63015;45.378;20.360;2024-01-06T02:54:00;4.53;;;1.83;;
74541;SDS011;63015;45.378;20.360;2024-01-06T02:56:01;5.65;;;1.80;;
74541;SDS011;63015;45.378;20.360;2024-01-06T02:58:18;5.53;;;2.10;;
74541;SDS011;63015;45.378;20.360;2024-01-06T03:02:58;3.60;;;1.45;;
74541;SDS011;63015;45.378;20.360;2024-01-06T03:04:59;5.20;;;1.92;;
74541;SDS011;63015;45.378;20.360;2024-01-06T03:06:59;4.47;;;1.48;;
74541;SDS011;63015;45.378;20.360;2024-01-06T03:09:00;5.30;;;2.00;;
74541;SDS011;63015;45.378;20.360;2024-01-06T03:11:01;5.70;;;2.22;;
74541;SDS011;63015;45.378;20.360;2024-01-06T03:13:04;5.40;;;1.33;;
74541;SDS011;63015;45.378;20.360;2024-01-06T03:15:04;3.63;;;1.58;;
74541;SDS011;63015;45.378;20.360;2024-01-06T03:17:05;4.25;;;1.50;;
74541;SDS011;63015;45.378;20.360;2024-01-06T03:19:05;3.65;;;1.20;;
74541;SDS011;63015;45.378;20.360;2024-01-06T03:21:16;5.53;;;1.98;;
74541;SDS011;63015;45.378;20.360;2024-01-06T03:23:17;5.07;;;1.55;;
74541;SDS011;63015;45.378;20.360;2024-01-06T03:25:17;5.35;;;1.40;;
74541;SDS011;63015;45.378;20.360;2024-01-06T03:27:18;2.90;;;1.38;;
74541;SDS011;63015;45.378;20.360;2024-01-06T03:29:18;8.32;;;2.05;;
74541;SDS011;63015;45.378;20.360;2024-01-06T03:31:19;6.25;;;1.83;;
74541;SDS011;63015;45.378;20.360;2024-01-06T03:33:22;4.97;;;2.10;;
74541;SDS011;63015;45.378;20.360;2024-01-06T03:35:22;5.63;;;1.90;;
74541;SDS011;63015;45.378;20.360;2024-01-06T03:37:30;4.15;;;1.33;;
74541;SDS011;63015;45.378;20.360;2024-01-06T03:39:31;5.70;;;1.98;;
74541;SDS011;63015;45.378;20.360;2024-01-06T03:41:31;5.90;;;1.17;;
74541;SDS011;63015;45.378;20.360;2024-01-06T03:43:32;4.93;;;1.77;;
74541;SDS011;63015;45.378;20.360;2024-01-06T03:45:33;6.70;;;1.80;;
74541;SDS011;63015;45.378;20.360;2024-01-06T03:47:33;4.82;;;1.77;;
74541;SDS011;63015;45.378;20.360;2024-01-06T03:49:34;6.15;;;2.22;;
74541;SDS011;63015;45.378;20.360;2024-01-06T03:51:34;5.93;;;1.80;;
74541;SDS011;63015;45.378;20.360;2024-01-06T03:53:35;5.15;;;1.55;;
74541;SDS011;63015;45.378;20.360;2024-01-06T03:55:35;7.22;;;2.60;;
74541;SDS011;63015;45.378;20.360;2024-01-06T03:57:36;6.57;;;2.55;;
74541;SDS011;63015;45.378;20.360;2024-01-06T03:59:36;7.93;;;2.67;;
74541;SDS011;63015;45.378;20.360;2024-01-06T04:01:37;5.10;;;1.80;;
74541;SDS011;63015;45.378;20.360;2024-01-06T04:03:38;6.13;;;2.92;;
74541;SDS011;63015;45.378;20.360;2024-01-06T04:05:40;4.97;;;1.85;;
74541;SDS011;63015;45.378;20.360;2024-01-06T04:07:42;4.57;;;1.60;;
74541;SDS011;63015;45.378;20.360;2024-01-06T04:09:42;6.88;;;2.17;;
74541;SDS011;63015;45.378;20.360;2024-01-06T04:11:43;4.47;;;1.67;;
74541;SDS011;63015;45.378;20.360;2024-01-06T04:13:44;4.55;;;1.92;;
74541;SDS011;63015;45.378;20.360;2024-01-06T04:15:44;4.95;;;1.55;;
74541;SDS011;63015;45.378;20.360;2024-01-06T04:17:47;3.75;;;1.45;;
74541;SDS011;63015;45.378;20.360;2024-01-06T04:19:51;5.45;;;1.67;;
74541;SDS011;63015;45.378;20.360;2024-01-06T04:21:51;6.63;;;1.90;;
74541;SDS011;63015;45.378;20.360;2024-01-06T04:23:52;6.45;;;1.73;;
74541;SDS011;63015;45.378;20.360;2024-01-06T04:25:52;3.92;;;1.58;;
74541;SDS011;63015;45.378;20.360;2024-01-06T04:27:53;5.13;;;2.15;;
74541;SDS011;63015;45.378;20.360;2024-01-06T04:29:53;6.68;;;2.10;;
74541;SDS011;63015;45.378;20.360;2024-01-06T04:31:54;5.28;;;1.77;;
74541;SDS011;63015;45.378;20.360;2024-01-06T04:33:54;5.63;;;1.50;;
74541;SDS011;63015;45.378;20.360;2024-01-06T04:35:55;6.03;;;1.83;;
74541;SDS011;63015;45.378;20.360;2024-01-06T04:37:55;8.68;;;2.10;;
74541;SDS011;63015;45.378;20.360;2024-01-06T04:39:56;3.40;;;1.30;;
74541;SDS011;63015;45.378;20.360;2024-01-06T04:41:57;5.38;;;1.48;;
74541;SDS011;63015;45.378;20.360;2024-01-06T04:43:58;5.07;;;1.35;;
74541;SDS011;63015;45.378;20.360;2024-01-06T04:45:58;6.63;;;1.90;;
74541;SDS011;63015;45.378;20.360;2024-01-06T04:47:59;3.88;;;1.23;;
74541;SDS011;63015;45.378;20.360;2024-01-06T04:49:59;3.78;;;1.45;;
74541;SDS011;63015;45.378;20.360;2024-01-06T04:52:01;4.88;;;1.65;;
74541;SDS011;63015;45.378;20.360;2024-01-06T04:54:01;3.92;;;1.73;;
74541;SDS011;63015;45.378;20.360;2024-01-06T04:56:03;4.32;;;1.23;;
74541;SDS011;63015;45.378;20.360;2024-01-06T04:58:03;5.22;;;1.80;;
74541;SDS011;63015;45.378;20.360;2024-01-06T05:00:04;5.90;;;1.50;;
74541;SDS011;63015;45.378;20.360;2024-01-06T05:02:05;7.13;;;1.85;;
74541;SDS011;63015;45.378;20.360;2024-01-06T05:04:06;6.10;;;1.92;;
74541;SDS011;63015;45.378;20.360;2024-01-06T05:06:07;5.75;;;1.65;;
74541;SDS011;63015;45.378;20.360;2024-01-06T05:08:07;5.50;;;1.80;;
74541;SDS011;63015;45.378;20.360;2024-01-06T05:10:08;4.13;;;1.60;;
74541;SDS011;63015;45.378;20.360;2024-01-06T05:12:08;5.00;;;1.90;;
74541;SDS011;63015;45.378;20.360;2024-01-06T05:14:09;4.40;;;1.38;;
74541;SDS011;63015;45.378;20.360;2024-01-06T05:16:09;5.32;;;1.80;;
74541;SDS011;63015;45.378;20.360;2024-01-06T05:18:11;5.32;;;1.70;;
74541;SDS011;63015;45.378;20.360;2024-01-06T05:20:12;4.15;;;1.60;;
74541;SDS011;63015;45.378;20.360;2024-01-06T05:22:12;5.38;;;1.83;;
74541;SDS011;63015;45.378;20.360;2024-01-06T05:24:13;4.55;;;1.80;;
74541;SDS011;63015;45.378;20.360;2024-01-06T05:26:13;6.15;;;2.10;;
74541;SDS011;63015;45.378;20.360;2024-01-06T05:28:14;5.28;;;1.88;;
74541;SDS011;63015;45.378;20.360;2024-01-06T05:30:14;4.97;;;2.72;;
74541;SDS011;63015;45.378;20.360;2024-01-06T05:32:15;5.60;;;1.95;;
74541;SDS011;63015;45.378;20.360;2024-01-06T05:34:18;5.57;;;2.15;;
74541;SDS011;63015;45.378;20.360;2024-01-06T05:36:19;4.85;;;2.03;;
74541;SDS011;63015;45.378;20.360;2024-01-06T05:38:20;3.35;;;1.05;;
74541;SDS011;63015;45.378;20.360;2024-01-06T05:40:20;19.92;;;6.72;;
74541;SDS011;63015;45.378;20.360;2024-01-06T05:42:21;9.68;;;2.78;;
74541;SDS011;63015;45.378;20.360;2024-01-06T05:44:22;9.35;;;2.10;;
74541;SDS011;63015;45.378;20.360;2024-01-06T05:46:24;8.18;;;2.85;;
74541;SDS011;63015;45.378;20.360;2024-01-06T05:48:25;4.20;;;1.38;;
74541;SDS011;63015;45.378;20.360;2024-01-06T05:50:25;5.38;;;1.60;;
74541;SDS011;63015;45.378;20.360;2024-01-06T05:52:26;4.90;;;1.48;;
74541;SDS011;63015;45.378;20.360;2024-01-06T05:54:28;4.78;;;1.63;;
74541;SDS011;63015;45.378;20.360;2024-01-06T05:56:29;6.53;;;2.25;;
74541;SDS011;63015;45.378;20.360;2024-01-06T05:58:29;3.78;;;1.52;;
74541;SDS011;63015;45.378;20.360;2024-01-06T06:00:30;4.97;;;1.60;;
74541;SDS011;63015;45.378;20.360;2024-01-06T06:02:31;4.30;;;1.63;;
74541;SDS011;63015;45.378;20.360;2024-01-06T06:04:32;6.28;;;2.10;;
74541;SDS011;63015;45.378;20.360;2024-01-06T06:06:32;5.97;;;1.52;;
74541;SDS011;63015;45.378;20.360;2024-01-06T06:08:33;4.75;;;1.88;;
74541;SDS011;63015;45.378;20.360;2024-01-06T06:10:33;5.05;;;2.08;;
74541;SDS011;63015;45.378;20.360;2024-01-06T06:12:41;4.93;;;1.90;;
74541;SDS011;63015;45.378;20.360;2024-01-06T06:14:42;6.15;;;1.50;;
74541;SDS011;63015;45.378;20.360;2024-01-06T06:16:42;6.93;;;2.33;;
74541;SDS011;63015;45.378;20.360;2024-01-06T06:18:43;4.90;;;2.25;;
74541;SDS011;63015;45.378;20.360;2024-01-06T06:20:43;6.05;;;1.58;;
74541;SDS011;63015;45.378;20.360;2024-01-06T06:22:44;7.78;;;2.22;;
74541;SDS011;63015;45.378;20.360;2024-01-06T06:24:44;7.43;;;1.92;;
74541;SDS011;63015;45.378;20.360;2024-01-06T06:26:50;5.03;;;1.83;;
74541;SDS011;63015;45.378;20.360;2024-01-06T06:28:51;7.18;;;2.63;;
74541;SDS011;63015;45.378;20.360;2024-01-06T06:30:52;11.25;;;3.90;;
74541;SDS011;63015;45.378;20.360;2024-01-06T06:32:53;10.52;;;3.33;;
74541;SDS011;63015;45.378;20.360;2024-01-06T06:34:53;11.13;;;3.47;;
74541;SDS011;63015;45.378;20.360;2024-01-06T06:36:54;11.00;;;3.90;;
74541;SDS011;63015;45.378;20.360;2024-01-06T06:38:54;8.13;;;2.85;;
74541;SDS011;63015;45.378;20.360;2024-01-06T06:40:55;13.43;;;4.20;;
74541;SDS011;63015;45.378;20.360;2024-01-06T06:42:56;9.70;;;3.97;;
74541;SDS011;63015;45.378;20.360;2024-01-06T06:44:56;8.32;;;3.75;;
74541;SDS011;63015;45.378;20.360;2024-01-06T06:46:57;4.88;;;1.70;;
74541;SDS011;63015;45.378;20.360;2024-01-06T06:48:57;6.07;;;1.40;;
74541;SDS011;63015;45.378;20.360;2024-01-06T06:50:58;4.82;;;1.60;;
74541;SDS011;63015;45.378;20.360;2024-01-06T06:52:59;7.13;;;1.95;;
74541;SDS011;63015;45.378;20.360;2024-01-06T06:55:01;4.85;;;1.88;;
74541;SDS011;63015;45.378;20.360;2024-01-06T06:57:01;4.53;;;1.30;;
74541;SDS011;63015;45.378;20.360;2024-01-06T06:59:03;6.93;;;1.80;;
74541;SDS011;63015;45.378;20.360;2024-01-06T07:01:03;5.68;;;2.17;;
74541;SDS011;63015;45.378;20.360;2024-01-06T07:03:05;5.28;;;1.77;;
74541;SDS011;63015;45.378;20.360;2024-01-06T07:05:06;5.38;;;2.00;;
74541;SDS011;63015;45.378;20.360;2024-01-06T07:07:07;5.32;;;2.10;;
74541;SDS011;63015;45.378;20.360;2024-01-06T07:09:07;5.03;;;2.13;;
74541;SDS011;63015;45.378;20.360;2024-01-06T07:11:08;5.35;;;2.05;;
74541;SDS011;63015;45.378;20.360;2024-01-06T07:13:08;5.47;;;1.83;;
74541;SDS011;63015;45.378;20.360;2024-01-06T07:15:09;7.55;;;2.20;;
74541;SDS011;63015;45.378;20.360;2024-01-06T07:17:11;7.55;;;3.05;;
74541;SDS011;63015;45.378;20.360;2024-01-06T07:19:11;8.40;;;2.72;;
74541;SDS011;63015;45.378;20.360;2024-01-06T07:21:12;5.90;;;2.05;;
74541;SDS011;63015;45.378;20.360;2024-01-06T07:23:13;5.97;;;2.10;;
74541;SDS011;63015;45.378;20.360;2024-01-06T07:25:13;7.20;;;2.40;;
74541;SDS011;63015;45.378;20.360;2024-01-06T07:27:14;7.70;;;2.53;;
74541;SDS011;63015;45.378;20.360;2024-01-06T07:29:15;11.55;;;4.57;;
74541;SDS011;63015;45.378;20.360;2024-01-06T07:31:15;8.85;;;4.13;;
74541;SDS011;63015;45.378;20.360;2024-01-06T07:33:17;7.53;;;2.95;;
74541;SDS011;63015;45.378;20.360;2024-01-06T07:35:18;7.63;;;2.88;;
74541;SDS011;63015;45.378;20.360;2024-01-06T07:37:19;9.52;;;4.13;;
74541;SDS011;63015;45.378;20.360;2024-01-06T07:39:20;8.70;;;3.92;;
74541;SDS011;63015;45.378;20.360;2024-01-06T07:41:21;6.95;;;2.63;;
74541;SDS011;63015;45.378;20.360;2024-01-06T07:43:21;11.40;;;3.65;;
74541;SDS011;63015;45.378;20.360;2024-01-06T07:45:22;9.85;;;3.30;;
74541;SDS011;63015;45.378;20.360;2024-01-06T07:47:22;11.95;;;3.72;;
74541;SDS011;63015;45.378;20.360;2024-01-06T07:49:25;7.55;;;2.65;;
74541;SDS011;63015;45.378;20.360;2024-01-06T07:51:25;5.55;;;1.60;;
74541;SDS011;63015;45.378;20.360;2024-01-06T07:53:26;4.85;;;2.05;;
74541;SDS011;63015;45.378;20.360;2024-01-06T07:55:26;6.57;;;2.58;;
74541;SDS011;63015;45.378;20.360;2024-01-06T07:57:28;7.03;;;2.38;;
74541;SDS011;63015;45.378;20.360;2024-01-06T07:59:29;6.68;;;2.40;;
74541;SDS011;63015;45.378;20.360;2024-01-06T08:01:30;7.47;;;3.13;;
74541;SDS011;63015;45.378;20.360;2024-01-06T08:03:31;5.95;;;2.17;;
74541;SDS011;63015;45.378;20.360;2024-01-06T08:05:31;4.10;;;1.55;;
74541;SDS011;63015;45.378;20.360;2024-01-06T08:07:33;6.15;;;2.40;;
74541;SDS011;63015;45.378;20.360;2024-01-06T08:09:33;4.57;;;1.85;;
74541;SDS011;63015;45.378;20.360;2024-01-06T08:11:34;5.40;;;1.83;;
74541;SDS011;63015;45.378;20.360;2024-01-06T08:13:34;5.47;;;2.10;;
74541;SDS011;63015;45.378;20.360;2024-01-06T08:15:35;7.03;;;1.85;;
74541;SDS011;63015;45.378;20.360;2024-01-06T08:17:36;5.55;;;2.28;;
74541;SDS011;63015;45.378;20.360;2024-01-06T08:19:37;5.25;;;1.83;;
74541;SDS011;63015;45.378;20.360;2024-01-06T08:21:38;4.18;;;1.63;;
74541;SDS011;63015;45.378;20.360;2024-01-06T08:26:11;5.50;;;1.70;;
74541;SDS011;63015;45.378;20.360;2024-01-06T08:28:11;7.78;;;2.97;;
74541;SDS011;63015;45.378;20.360;2024-01-06T08:32:15;7.05;;;2.00;;
74541;SDS011;63015;45.378;20.360;2024-01-06T08:34:16;7.20;;;2.60;;
74541;SDS011;63015;45.378;20.360;2024-01-06T08:36:17;9.60;;;4.30;;
74541;SDS011;63015;45.378;20.360;2024-01-06T08:38:18;10.93;;;4.38;;
74541;SDS011;63015;45.378;20.360;2024-01-06T08:40:19;5.88;;;2.78;;
74541;SDS011;63015;45.378;20.360;2024-01-06T08:42:19;7.32;;;3.33;;
74541;SDS011;63015;45.378;20.360;2024-01-06T08:44:20;8.27;;;2.80;;
74541;SDS011;63015;45.378;20.360;2024-01-06T08:46:20;8.27;;;3.80;;
74541;SDS011;63015;45.378;20.360;2024-01-06T08:48:21;6.15;;;3.53;;
74541;SDS011;63015;45.378;20.360;2024-01-06T08:50:22;7.65;;;2.25;;
74541;SDS011;63015;45.378;20.360;2024-01-06T08:52:23;7.55;;;3.30;;
74541;SDS011;63015;45.378;20.360;2024-01-06T08:54:54;9.02;;;3.38;;
74541;SDS011;63015;45.378;20.360;2024-01-06T08:56:54;9.50;;;3.92;;
74541;SDS011;63015;45.378;20.360;2024-01-06T08:58:55;9.95;;;3.90;;
74541;SDS011;63015;45.378;20.360;2024-01-06T09:00:57;8.85;;;3.00;;
74541;SDS011;63015;45.378;20.360;2024-01-06T09:02:57;7.78;;;3.88;;
74541;SDS011;63015;45.378;20.360;2024-01-06T09:04:58;7.15;;;2.88;;
74541;SDS011;63015;45.378;20.360;2024-01-06T09:06:58;9.82;;;3.30;;
74541;SDS011;63015;45.378;20.360;2024-01-06T09:08:59;15.60;;;5.32;;
74541;SDS011;63015;45.378;20.360;2024-01-06T09:10:59;7.18;;;2.88;;
74541;SDS011;63015;45.378;20.360;2024-01-06T09:12:59;8.48;;;3.72;;
74541;SDS011;63015;45.378;20.360;2024-01-06T09:15:01;8.95;;;4.55;;
74541;SDS011;63015;45.378;20.360;2024-01-06T09:17:02;8.27;;;3.05;;
74541;SDS011;63015;45.378;20.360;2024-01-06T09:19:04;10.30;;;4.15;;
74541;SDS011;63015;45.378;20.360;2024-01-06T09:21:04;8.48;;;3.65;;
74541;SDS011;63015;45.378;20.360;2024-01-06T09:23:05;11.98;;;4.20;;
74541;SDS011;63015;45.378;20.360;2024-01-06T09:25:06;8.70;;;3.83;;
74541;SDS011;63015;45.378;20.360;2024-01-06T09:27:07;6.60;;;3.08;;
74541;SDS011;63015;45.378;20.360;2024-01-06T09:29:07;8.88;;;3.85;;
74541;SDS011;63015;45.378;20.360;2024-01-06T09:31:08;7.05;;;2.22;;
74541;SDS011;63015;45.378;20.360;2024-01-06T09:33:08;8.18;;;3.35;;
74541;SDS011;63015;45.378;20.360;2024-01-06T09:35:09;9.15;;;4.43;;
74541;SDS011;63015;45.378;20.360;2024-01-06T09:37:09;6.43;;;2.55;;
74541;SDS011;63015;45.378;20.360;2024-01-06T09:39:10;9.35;;;3.42;;
74541;SDS011;63015;45.378;20.360;2024-01-06T09:41:10;8.63;;;3.08;;
74541;SDS011;63015;45.378;20.360;2024-01-06T09:43:11;8.75;;;3.70;;
74541;SDS011;63015;45.378;20.360;2024-01-06T09:45:12;12.82;;;3.30;;
74541;SDS011;63015;45.378;20.360;2024-01-06T09:47:12;9.80;;;2.90;;
74541;SDS011;63015;45.378;20.360;2024-01-06T09:49:13;6.78;;;2.78;;
74541;SDS011;63015;45.378;20.360;2024-01-06T09:51:15;8.45;;;3.63;;
74541;SDS011;63015;45.378;20.360;2024-01-06T09:53:15;9.52;;;3.50;;
74541;SDS011;63015;45.378;20.360;2024-01-06T09:55:17;11.15;;;4.93;;
74541;SDS011;63015;45.378;20.360;2024-01-06T09:57:21;9.85;;;3.95;;
74541;SDS011;63015;45.378;20.360;2024-01-06T09:59:22;9.73;;;4.10;;
74541;SDS011;63015;45.378;20.360;2024-01-06T10:01:23;8.75;;;3.97;;
74541;SDS011;63015;45.378;20.360;2024-01-06T10:03:24;8.50;;;3.33;;
74541;SDS011;63015;45.378;20.360;2024-01-06T10:05:24;7.53;;;3.63;;
74541;SDS011;63015;45.378;20.360;2024-01-06T10:07:28;7.60;;;2.85;;
74541;SDS011;63015;45.378;20.360;2024-01-06T10:09:28;8.10;;;3.28;;
74541;SDS011;63015;45.378;20.360;2024-01-06T10:11:29;8.60;;;4.07;;
74541;SDS011;63015;45.378;20.360;2024-01-06T10:13:29;10.95;;;4.18;;
74541;SDS011;63015;45.378;20.360;2024-01-06T10:15:30;11.02;;;5.03;;
74541;SDS011;63015;45.378;20.360;2024-01-06T10:17:30;11.35;;;4.32;;
74541;SDS011;63015;45.378;20.360;2024-01-06T10:19:31;6.38;;;2.65;;
74541;SDS011;63015;45.378;20.360;2024-01-06T10:21:31;13.45;;;4.75;;
74541;SDS011;63015;45.378;20.360;2024-01-06T10:23:32;12.18;;;5.07;;
74541;SDS011;63015;45.378;20.360;2024-01-06T10:25:34;8.27;;;3.80;;
74541;SDS011;63015;45.378;20.360;2024-01-06T10:27:38;9.82;;;3.92;;
74541;SDS011;63015;45.378;20.360;2024-01-06T10:29:39;10.73;;;4.38;;
74541;SDS011;63015;45.378;20.360;2024-01-06T10:31:39;11.32;;;3.95;;
74541;SDS011;63015;45.378;20.360;2024-01-06T10:33:41;10.38;;;4.82;;
74541;SDS011;63015;45.378;20.360;2024-01-06T10:35:41;8.95;;;3.78;;
74541;SDS011;63015;45.378;20.360;2024-01-06T10:37:42;9.48;;;3.55;;
74541;SDS011;63015;45.378;20.360;2024-01-06T10:39:43;17.50;;;5.75;;
74541;SDS011;63015;45.378;20.360;2024-01-06T10:41:45;8.55;;;2.95;;
74541;SDS011;63015;45.378;20.360;2024-01-06T10:43:48;8.77;;;3.55;;
74541;SDS011;63015;45.378;20.360;2024-01-06T10:45:51;8.13;;;2.97;;
74541;SDS011;63015;45.378;20.360;2024-01-06T10:47:53;21.25;;;6.85;;
74541;SDS011;63015;45.378;20.360;2024-01-06T10:49:55;34.17;;;12.07;;
74541;SDS011;63015;45.378;20.360;2024-01-06T10:51:59;18.55;;;5.82;;
74541;SDS011;63015;45.378;20.360;2024-01-06T10:54:01;21.73;;;5.43;;
74541;SDS011;63015;45.378;20.360;2024-01-06T10:56:02;17.17;;;4.63;;
74541;SDS011;63015;45.378;20.360;2024-01-06T10:58:03;27.73;;;9.50;;
74541;SDS011;63015;45.378;20.360;2024-01-06T11:00:06;24.10;;;7.78;;
74541;SDS011;63015;45.378;20.360;2024-01-06T11:02:07;23.80;;;8.20;;
74541;SDS011;63015;45.378;20.360;2024-01-06T11:04:09;12.85;;;5.28;;
74541;SDS011;63015;45.378;20.360;2024-01-06T11:06:10;17.20;;;7.03;;
74541;SDS011;63015;45.378;20.360;2024-01-06T11:08:12;13.10;;;5.47;;
74541;SDS011;63015;45.378;20.360;2024-01-06T11:10:16;14.48;;;5.10;;
74541;SDS011;63015;45.378;20.360;2024-01-06T11:12:18;13.65;;;4.13;;
74541;SDS011;63015;45.378;20.360;2024-01-06T11:14:20;12.48;;;4.80;;
74541;SDS011;63015;45.378;20.360;2024-01-06T11:16:34;8.52;;;4.03;;
74541;SDS011;63015;45.378;20.360;2024-01-06T11:18:36;8.70;;;3.45;;
74541;SDS011;63015;45.378;20.360;2024-01-06T11:20:38;12.38;;;3.83;;
74541;SDS011;63015;45.378;20.360;2024-01-06T11:22:38;8.48;;;3.97;;
74541;SDS011;63015;45.378;20.360;2024-01-06T11:24:41;11.93;;;3.65;;
74541;SDS011;63015;45.378;20.360;2024-01-06T11:26:50;17.50;;;7.20;;
74541;SDS011;63015;45.378;20.360;2024-01-06T11:28:52;10.30;;;3.80;;
74541;SDS011;63015;45.378;20.360;2024-01-06T11:31:04;10.93;;;4.28;;
74541;SDS011;63015;45.378;20.360;2024-01-06T11:33:08;10.45;;;3.60;;
74541;SDS011;63015;45.378;20.360;2024-01-06T11:35:10;8.75;;;3.20;;
74541;SDS011;63015;45.378;20.360;2024-01-06T11:37:12;7.38;;;2.80;;
74541;SDS011;63015;45.378;20.360;2024-01-06T11:41:44;7.70;;;2.95;;
74541;SDS011;63015;45.378;20.360;2024-01-06T11:43:49;12.30;;;3.60;;
74541;SDS011;63015;45.378;20.360;2024-01-06T11:45:50;9.52;;;4.35;;
74541;SDS011;63015;45.378;20.360;2024-01-06T11:47:54;12.52;;;4.13;;
74541;SDS011;63015;45.378;20.360;2024-01-06T11:49:56;13.48;;;5.18;;
74541;SDS011;63015;45.378;20.360;2024-01-06T11:52:00;6.50;;;2.65;;
74541;SDS011;63015;45.378;20.360;2024-01-06T11:54:00;11.70;;;4.78;;
74541;SDS011;63015;45.378;20.360;2024-01-06T11:56:01;13.23;;;4.40;;
74541;SDS011;63015;45.378;20.360;2024-01-06T11:58:02;7.35;;;3.38;;
74541;SDS011;63015;45.378;20.360;2024-01-06T12:00:03;9.75;;;3.95;;
74541;SDS011;63015;45.378;20.360;2024-01-06T12:02:10;11.98;;;4.47;;
74541;SDS011;63015;45.378;20.360;2024-01-06T12:04:14;7.65;;;3.25;;
74541;SDS011;63015;45.378;20.360;2024-01-06T12:06:19;8.85;;;4.25;;
74541;SDS011;63015;45.378;20.360;2024-01-06T12:08:21;8.43;;;4.45;;
74541;SDS011;63015;45.378;20.360;2024-01-06T12:10:22;12.50;;;4.43;;
74541;SDS011;63015;45.378;20.360;2024-01-06T12:12:23;9.18;;;3.95;;
74541;SDS011;63015;45.378;20.360;2024-01-06T12:14:23;9.77;;;3.92;;
74541;SDS011;63015;45.378;20.360;2024-01-06T12:16:24;8.55;;;4.38;;